sensor_id;sensor_type;location;lat;lon;timestamp;temperature;humidity
19132;DHT22;9698;51.976;7.570;2023-04-25T00:00:24;8.80;99.90
19132;DHT22;9698;51.976;7.570;2023-04-25T00:02:52;8.80;99.90
19132;DHT22;9698;51.976;7.570;2023-04-25T00:05:20;8.80;99.90
19132;DHT22;9698;51.976;7.570;2023-04-25T00:07:50;8.80;99.90
19132;DHT22;9698;51.976;7.570;2023-04-25T00:10:19;8.60;99.90
19132;DHT22;9698;51.976;7.570;2023-04-25T00:12:47;8.70;99.90
19132;DHT22;9698;51.976;7.570;2023-04-25T00:15:16;8.60;99.90
19132;DHT22;9698;51.976;7.570;2023-04-25T00:17:45;8.80;99.90
19132;DHT22;9698;51.976;7.570;2023-04-25T00:20:14;8.70;99.90
19132;DHT22;9698;51.976;7.570;2023-04-25T00:22:42;8.70;99.90
19132;DHT22;9698;51.976;7.570;2023-04-25T00:25:11;8.70;99.90
19132;DHT22;9698;51.976;7.570;2023-04-25T00:27:39;9.00;99.90
19132;DHT22;9698;51.976;7.570;2023-04-25T00:30:11;8.70;99.90
19132;DHT22;9698;51.976;7.570;2023-04-25T00:32:39;8.70;99.90
19132;DHT22;9698;51.976;7.570;2023-04-25T00:35:09;8.60;99.90
19132;DHT22;9698;51.976;7.570;2023-04-25T00:37:37;8.70;99.90
19132;DHT22;9698;51.976;7.570;2023-04-25T00:40:08;8.50;99.90
19132;DHT22;9698;51.976;7.570;2023-04-25T00:42:37;8.50;99.90
19132;DHT22;9698;51.976;7.570;2023-04-25T00:45:07;8.60;99.90
19132;DHT22;9698;51.976;7.570;2023-04-25T00:47:37;8.90;99.90
19132;DHT22;9698;51.976;7.570;2023-04-25T00:50:07;8.60;99.90
19132;DHT22;9698;51.976;7.570;2023-04-25T00:52:36;8.50;99.90
19132;DHT22;9698;51.976;7.570;2023-04-25T00:55:06;8.70;99.90
19132;DHT22;9698;51.976;7.570;2023-04-25T00:57:34;8.40;99.90
19132;DHT22;9698;51.976;7.570;2023-04-25T01:02:33;8.60;99.90
19132;DHT22;9698;51.976;7.570;2023-04-25T01:05:03;8.40;99.90
19132;DHT22;9698;51.976;7.570;2023-04-25T01:07:31;8.60;99.90
19132;DHT22;9698;51.976;7.570;2023-04-25T01:09:59;8.60;99.90
19132;DHT22;9698;51.976;7.570;2023-04-25T01:12:27;8.60;99.90
19132;DHT22;9698;51.976;7.570;2023-04-25T01:14:55;8.40;99.90
19132;DHT22;9698;51.976;7.570;2023-04-25T01:17:23;8.40;99.90
19132;DHT22;9698;51.976;7.570;2023-04-25T01:19:51;8.40;99.90
19132;DHT22;9698;51.976;7.570;2023-04-25T01:22:19;8.40;99.90
19132;DHT22;9698;51.976;7.570;2023-04-25T01:24:48;8.20;99.90
19132;DHT22;9698;51.976;7.570;2023-04-25T01:27:16;8.60;99.90
19132;DHT22;9698;51.976;7.570;2023-04-25T01:29:45;8.40;99.90
19132;DHT22;9698;51.976;7.570;2023-04-25T01:32:15;8.40;99.90
19132;DHT22;9698;51.976;7.570;2023-04-25T01:34:43;10.50;99.90
19132;DHT22;9698;51.976;7.570;2023-04-25T01:39:39;8.50;99.90
19132;DHT22;9698;51.976;7.570;2023-04-25T01:42:07;8.40;99.90
19132;DHT22;9698;51.976;7.570;2023-04-25T01:44:35;8.60;99.90
19132;DHT22;9698;51.976;7.570;2023-04-25T01:47:03;8.30;99.90
19132;DHT22;9698;51.976;7.570;2023-04-25T01:49:31;8.20;99.90
19132;DHT22;9698;51.976;7.570;2023-04-25T01:51:59;8.30;99.90
19132;DHT22;9698;51.976;7.570;2023-04-25T01:54:26;8.50;99.90
19132;DHT22;9698;51.976;7.570;2023-04-25T01:56:57;8.30;99.90
19132;DHT22;9698;51.976;7.570;2023-04-25T01:59:25;8.50;99.90
19132;DHT22;9698;51.976;7.570;2023-04-25T02:01:53;8.50;99.90
19132;DHT22;9698;51.976;7.570;2023-04-25T02:04:21;8.40;99.90
19132;DHT22;9698;51.976;7.570;2023-04-25T02:06:49;8.60;99.90
19132;DHT22;9698;51.976;7.570;2023-04-25T02:09:16;8.40;99.90
19132;DHT22;9698;51.976;7.570;2023-04-25T02:11:45;8.50;99.90
19132;DHT22;9698;51.976;7.570;2023-04-25T02:14:13;8.30;99.90
19132;DHT22;9698;51.976;7.570;2023-04-25T02:16:41;8.50;99.90
19132;DHT22;9698;51.976;7.570;2023-04-25T02:19:11;8.30;99.90
19132;DHT22;9698;51.976;7.570;2023-04-25T02:21:39;8.20;99.90
19132;DHT22;9698;51.976;7.570;2023-04-25T02:24:08;8.50;99.90
19132;DHT22;9698;51.976;7.570;2023-04-25T02:26:36;8.50;99.90
19132;DHT22;9698;51.976;7.570;2023-04-25T02:29:04;8.40;99.90
19132;DHT22;9698;51.976;7.570;2023-04-25T02:31:32;8.30;99.90
19132;DHT22;9698;51.976;7.570;2023-04-25T02:34:01;8.20;99.90
19132;DHT22;9698;51.976;7.570;2023-04-25T02:36:28;8.30;99.90
19132;DHT22;9698;51.976;7.570;2023-04-25T02:39:00;8.20;99.90
19132;DHT22;9698;51.976;7.570;2023-04-25T02:44:17;8.30;99.90
19132;DHT22;9698;51.976;7.570;2023-04-25T02:46:45;8.40;99.90
19132;DHT22;9698;51.976;7.570;2023-04-25T02:49:13;8.00;99.90
19132;DHT22;9698;51.976;7.570;2023-04-25T02:51:41;8.20;99.90
19132;DHT22;9698;51.976;7.570;2023-04-25T02:54:09;8.30;99.90
19132;DHT22;9698;51.976;7.570;2023-04-25T02:56:37;8.30;99.90
19132;DHT22;9698;51.976;7.570;2023-04-25T02:59:05;8.30;99.90
19132;DHT22;9698;51.976;7.570;2023-04-25T03:01:32;7.70;99.90
19132;DHT22;9698;51.976;7.570;2023-04-25T03:04:00;8.00;99.90
19132;DHT22;9698;51.976;7.570;2023-04-25T03:09:17;8.20;99.90
19132;DHT22;9698;51.976;7.570;2023-04-25T03:11:46;8.20;99.90
19132;DHT22;9698;51.976;7.570;2023-04-25T03:14:14;8.10;99.90
19132;DHT22;9698;51.976;7.570;2023-04-25T03:16:41;8.10;99.90
19132;DHT22;9698;51.976;7.570;2023-04-25T03:19:09;8.10;99.90
19132;DHT22;9698;51.976;7.570;2023-04-25T03:21:37;8.10;99.90
19132;DHT22;9698;51.976;7.570;2023-04-25T03:24:06;8.10;99.90
19132;DHT22;9698;51.976;7.570;2023-04-25T03:26:34;8.20;99.90
19132;DHT22;9698;51.976;7.570;2023-04-25T03:29:02;8.10;99.90
19132;DHT22;9698;51.976;7.570;2023-04-25T03:34:18;8.00;99.90
19132;DHT22;9698;51.976;7.570;2023-04-25T03:36:45;8.10;99.90
19132;DHT22;9698;51.976;7.570;2023-04-25T03:39:13;8.20;99.90
19132;DHT22;9698;51.976;7.570;2023-04-25T03:41:41;7.90;99.90
19132;DHT22;9698;51.976;7.570;2023-04-25T03:44:09;8.00;99.90
19132;DHT22;9698;51.976;7.570;2023-04-25T03:49:26;8.00;99.90
19132;DHT22;9698;51.976;7.570;2023-04-25T03:51:54;8.00;99.90
19132;DHT22;9698;51.976;7.570;2023-04-25T03:54:22;8.00;99.90
19132;DHT22;9698;51.976;7.570;2023-04-25T03:56:50;7.90;99.90
19132;DHT22;9698;51.976;7.570;2023-04-25T03:59:17;7.90;99.90
19132;DHT22;9698;51.976;7.570;2023-04-25T04:01:45;7.80;99.90
19132;DHT22;9698;51.976;7.570;2023-04-25T04:04:13;7.70;99.90
19132;DHT22;9698;51.976;7.570;2023-04-25T04:06:41;7.50;99.90
19132;DHT22;9698;51.976;7.570;2023-04-25T04:09:09;8.00;99.90
19132;DHT22;9698;51.976;7.570;2023-04-25T04:11:38;7.90;99.90
19132;DHT22;9698;51.976;7.570;2023-04-25T04:14:07;7.90;99.90
19132;DHT22;9698;51.976;7.570;2023-04-25T04:16:34;7.90;99.90
19132;DHT22;9698;51.976;7.570;2023-04-25T04:19:03;7.90;99.90
19132;DHT22;9698;51.976;7.570;2023-04-25T04:21:31;8.00;99.90
19132;DHT22;9698;51.976;7.570;2023-04-25T04:23:59;7.90;99.90
19132;DHT22;9698;51.976;7.570;2023-04-25T04:26:27;7.90;99.90
19132;DHT22;9698;51.976;7.570;2023-04-25T04:28:55;7.80;99.90
19132;DHT22;9698;51.976;7.570;2023-04-25T04:31:22;7.80;99.90
19132;DHT22;9698;51.976;7.570;2023-04-25T04:33:51;8.30;99.90
19132;DHT22;9698;51.976;7.570;2023-04-25T04:36:19;7.90;99.90
19132;DHT22;9698;51.976;7.570;2023-04-25T04:38:49;7.90;99.90
19132;DHT22;9698;51.976;7.570;2023-04-25T04:41:16;7.70;99.90
19132;DHT22;9698;51.976;7.570;2023-04-25T04:43:44;7.80;99.90
19132;DHT22;9698;51.976;7.570;2023-04-25T04:46:12;7.60;99.90
19132;DHT22;9698;51.976;7.570;2023-04-25T04:48:40;7.60;99.90
19132;DHT22;9698;51.976;7.570;2023-04-25T04:51:08;7.50;99.90
19132;DHT22;9698;51.976;7.570;2023-04-25T04:53:36;7.70;99.90
19132;DHT22;9698;51.976;7.570;2023-04-25T04:56:04;7.60;99.90
19132;DHT22;9698;51.976;7.570;2023-04-25T04:58:32;7.50;99.90
19132;DHT22;9698;51.976;7.570;2023-04-25T05:01:00;7.60;99.90
19132;DHT22;9698;51.976;7.570;2023-04-25T05:03:28;7.60;99.90
19132;DHT22;9698;51.976;7.570;2023-04-25T05:05:56;7.70;99.90
19132;DHT22;9698;51.976;7.570;2023-04-25T05:08:24;7.60;99.90
19132;DHT22;9698;51.976;7.570;2023-04-25T05:10:52;7.60;99.90
19132;DHT22;9698;51.976;7.570;2023-04-25T05:13:20;7.60;99.90
19132;DHT22;9698;51.976;7.570;2023-04-25T05:15:48;7.60;99.90
19132;DHT22;9698;51.976;7.570;2023-04-25T05:18:16;7.60;99.90
19132;DHT22;9698;51.976;7.570;2023-04-25T05:23:31;7.80;99.90
19132;DHT22;9698;51.976;7.570;2023-04-25T05:26:00;7.80;99.90
19132;DHT22;9698;51.976;7.570;2023-04-25T05:28:28;7.90;99.90
19132;DHT22;9698;51.976;7.570;2023-04-25T05:30:56;7.60;99.90
19132;DHT22;9698;51.976;7.570;2023-04-25T05:33:24;7.70;99.90
19132;DHT22;9698;51.976;7.570;2023-04-25T05:38:40;9.90;99.90
19132;DHT22;9698;51.976;7.570;2023-04-25T05:41:07;7.80;99.90
19132;DHT22;9698;51.976;7.570;2023-04-25T05:43:36;7.40;99.90
19132;DHT22;9698;51.976;7.570;2023-04-25T05:46:04;7.70;99.90
19132;DHT22;9698;51.976;7.570;2023-04-25T05:48:33;7.50;99.90
19132;DHT22;9698;51.976;7.570;2023-04-25T05:51:01;7.80;99.90
19132;DHT22;9698;51.976;7.570;2023-04-25T05:53:29;7.90;99.90
19132;DHT22;9698;51.976;7.570;2023-04-25T05:55:57;7.80;99.90
19132;DHT22;9698;51.976;7.570;2023-04-25T05:58:25;7.60;99.90
19132;DHT22;9698;51.976;7.570;2023-04-25T06:00:53;8.00;99.90
19132;DHT22;9698;51.976;7.570;2023-04-25T06:03:21;7.80;99.90
19132;DHT22;9698;51.976;7.570;2023-04-25T06:05:50;7.90;99.90
19132;DHT22;9698;51.976;7.570;2023-04-25T06:08:18;7.80;99.90
19132;DHT22;9698;51.976;7.570;2023-04-25T06:10:46;7.90;99.90
19132;DHT22;9698;51.976;7.570;2023-04-25T06:16:00;8.20;99.90
19132;DHT22;9698;51.976;7.570;2023-04-25T06:18:28;7.90;99.90
19132;DHT22;9698;51.976;7.570;2023-04-25T06:20:56;7.90;99.90
19132;DHT22;9698;51.976;7.570;2023-04-25T06:23:24;7.90;99.90
19132;DHT22;9698;51.976;7.570;2023-04-25T06:25:52;7.90;99.90
19132;DHT22;9698;51.976;7.570;2023-04-25T06:28:20;7.80;99.90
19132;DHT22;9698;51.976;7.570;2023-04-25T06:30:49;8.00;99.90
19132;DHT22;9698;51.976;7.570;2023-04-25T06:33:17;8.30;99.90
19132;DHT22;9698;51.976;7.570;2023-04-25T06:35:45;8.00;99.90
19132;DHT22;9698;51.976;7.570;2023-04-25T06:38:12;7.90;99.90
19132;DHT22;9698;51.976;7.570;2023-04-25T06:40:40;8.00;99.90
19132;DHT22;9698;51.976;7.570;2023-04-25T06:43:08;7.90;99.90
19132;DHT22;9698;51.976;7.570;2023-04-25T06:45:37;8.10;99.90
19132;DHT22;9698;51.976;7.570;2023-04-25T06:48:05;8.00;99.90
19132;DHT22;9698;51.976;7.570;2023-04-25T06:50:34;8.10;99.90
19132;DHT22;9698;51.976;7.570;2023-04-25T06:53:02;8.20;99.90
19132;DHT22;9698;51.976;7.570;2023-04-25T06:55:30;8.20;99.90
19132;DHT22;9698;51.976;7.570;2023-04-25T07:00:45;8.20;99.90
19132;DHT22;9698;51.976;7.570;2023-04-25T07:03:13;7.90;80.20
19132;DHT22;9698;51.976;7.570;2023-04-25T07:08:30;8.40;75.10
19132;DHT22;9698;51.976;7.570;2023-04-25T07:10:57;8.30;23.80
19132;DHT22;9698;51.976;7.570;2023-04-25T07:16:11;8.20;27.70
19132;DHT22;9698;51.976;7.570;2023-04-25T07:18:39;7.90;25.30
19132;DHT22;9698;51.976;7.570;2023-04-25T07:21:07;8.20;1.00
19132;DHT22;9698;51.976;7.570;2023-04-25T07:23:35;8.00;1.00
19132;DHT22;9698;51.976;7.570;2023-04-25T07:26:04;8.20;31.00
19132;DHT22;9698;51.976;7.570;2023-04-25T07:28:33;8.40;8.90
19132;DHT22;9698;51.976;7.570;2023-04-25T07:31:00;8.50;1.00
19132;DHT22;9698;51.976;7.570;2023-04-25T07:33:28;8.50;1.00
19132;DHT22;9698;51.976;7.570;2023-04-25T07:35:56;8.60;1.00
19132;DHT22;9698;51.976;7.570;2023-04-25T07:38:24;8.50;1.00
19132;DHT22;9698;51.976;7.570;2023-04-25T07:40:52;8.70;1.00
19132;DHT22;9698;51.976;7.570;2023-04-25T07:43:20;8.60;1.00
19132;DHT22;9698;51.976;7.570;2023-04-25T07:45:48;8.60;1.00
19132;DHT22;9698;51.976;7.570;2023-04-25T07:48:18;8.60;1.00
19132;DHT22;9698;51.976;7.570;2023-04-25T07:50:45;8.60;1.00
19132;DHT22;9698;51.976;7.570;2023-04-25T07:53:13;8.50;1.00
19132;DHT22;9698;51.976;7.570;2023-04-25T07:55:41;8.20;1.00
19132;DHT22;9698;51.976;7.570;2023-04-25T07:58:09;8.60;1.00
19132;DHT22;9698;51.976;7.570;2023-04-25T08:00:37;8.60;1.00
19132;DHT22;9698;51.976;7.570;2023-04-25T08:03:05;8.70;1.00
19132;DHT22;9698;51.976;7.570;2023-04-25T08:05:34;8.60;1.00
19132;DHT22;9698;51.976;7.570;2023-04-25T08:08:02;8.70;1.00
19132;DHT22;9698;51.976;7.570;2023-04-25T08:10:30;8.50;1.00
19132;DHT22;9698;51.976;7.570;2023-04-25T08:12:58;8.30;1.00
19132;DHT22;9698;51.976;7.570;2023-04-25T08:15:25;8.40;1.00
19132;DHT22;9698;51.976;7.570;2023-04-25T08:17:53;8.50;1.00
19132;DHT22;9698;51.976;7.570;2023-04-25T08:20:22;8.80;1.00
19132;DHT22;9698;51.976;7.570;2023-04-25T08:22:51;8.80;1.00
19132;DHT22;9698;51.976;7.570;2023-04-25T08:25:19;8.50;1.00
19132;DHT22;9698;51.976;7.570;2023-04-25T08:27:46;8.90;1.00
19132;DHT22;9698;51.976;7.570;2023-04-25T08:30:15;9.20;1.00
19132;DHT22;9698;51.976;7.570;2023-04-25T08:32:42;9.20;99.90
19132;DHT22;9698;51.976;7.570;2023-04-25T08:35:10;9.20;90.20
19132;DHT22;9698;51.976;7.570;2023-04-25T08:37:38;9.00;99.90
19132;DHT22;9698;51.976;7.570;2023-04-25T08:40:12;9.00;99.90
19132;DHT22;9698;51.976;7.570;2023-04-25T08:42:41;8.60;99.90
19132;DHT22;9698;51.976;7.570;2023-04-25T08:47:57;9.00;1.00
19132;DHT22;9698;51.976;7.570;2023-04-25T08:50:26;8.90;99.90
19132;DHT22;9698;51.976;7.570;2023-04-25T08:52:55;9.30;99.90
19132;DHT22;9698;51.976;7.570;2023-04-25T08:58:16;9.50;1.00
19132;DHT22;9698;51.976;7.570;2023-04-25T09:00:47;9.50;1.00
19132;DHT22;9698;51.976;7.570;2023-04-25T09:03:15;9.10;1.00
19132;DHT22;9698;51.976;7.570;2023-04-25T09:05:43;9.40;1.00
19132;DHT22;9698;51.976;7.570;2023-04-25T09:11:01;9.40;1.00
19132;DHT22;9698;51.976;7.570;2023-04-25T09:13:30;9.40;99.90
19132;DHT22;9698;51.976;7.570;2023-04-25T09:15:58;9.50;1.00
19132;DHT22;9698;51.976;7.570;2023-04-25T09:21:14;9.10;1.00
19132;DHT22;9698;51.976;7.570;2023-04-25T09:26:32;9.30;1.00
19132;DHT22;9698;51.976;7.570;2023-04-25T09:32:10;9.50;1.00
19132;DHT22;9698;51.976;7.570;2023-04-25T09:34:40;9.30;99.90
19132;DHT22;9698;51.976;7.570;2023-04-25T09:37:10;9.60;99.90
19132;DHT22;9698;51.976;7.570;2023-04-25T09:39:39;9.40;1.00
19132;DHT22;9698;51.976;7.570;2023-04-25T09:42:09;9.40;1.00
19132;DHT22;9698;51.976;7.570;2023-04-25T09:44:37;9.10;1.00
19132;DHT22;9698;51.976;7.570;2023-04-25T09:47:10;9.30;1.00
19132;DHT22;9698;51.976;7.570;2023-04-25T09:49:41;9.40;1.00
19132;DHT22;9698;51.976;7.570;2023-04-25T09:52:13;9.50;1.00
19132;DHT22;9698;51.976;7.570;2023-04-25T09:54:41;9.40;1.00
19132;DHT22;9698;51.976;7.570;2023-04-25T10:00:01;9.50;1.00
19132;DHT22;9698;51.976;7.570;2023-04-25T10:02:33;9.60;99.90
19132;DHT22;9698;51.976;7.570;2023-04-25T10:05:05;9.90;1.00
19132;DHT22;9698;51.976;7.570;2023-04-25T10:07:34;9.70;99.90
19132;DHT22;9698;51.976;7.570;2023-04-25T10:10:07;9.70;1.00
19132;DHT22;9698;51.976;7.570;2023-04-25T10:12:35;9.80;1.00
19132;DHT22;9698;51.976;7.570;2023-04-25T10:15:06;10.30;1.00
19132;DHT22;9698;51.976;7.570;2023-04-25T10:17:36;9.50;99.90
19132;DHT22;9698;51.976;7.570;2023-04-25T10:20:08;9.90;26.40
19132;DHT22;9698;51.976;7.570;2023-04-25T10:22:39;9.90;1.00
19132;DHT22;9698;51.976;7.570;2023-04-25T10:25:10;9.80;99.90
19132;DHT22;9698;51.976;7.570;2023-04-25T10:27:39;9.90;1.00
19132;DHT22;9698;51.976;7.570;2023-04-25T10:30:10;10.00;1.00
19132;DHT22;9698;51.976;7.570;2023-04-25T10:32:43;10.10;1.00
19132;DHT22;9698;51.976;7.570;2023-04-25T10:35:13;9.90;1.00
19132;DHT22;9698;51.976;7.570;2023-04-25T10:38:02;10.50;1.00
19132;DHT22;9698;51.976;7.570;2023-04-25T10:40:31;10.30;1.00
19132;DHT22;9698;51.976;7.570;2023-04-25T10:43:34;10.20;1.00
19132;DHT22;9698;51.976;7.570;2023-04-25T10:46:02;10.30;1.00
19132;DHT22;9698;51.976;7.570;2023-04-25T10:51:20;10.10;1.00
19132;DHT22;9698;51.976;7.570;2023-04-25T10:53:58;9.90;1.00
19132;DHT22;9698;51.976;7.570;2023-04-25T10:56:27;9.90;1.00
19132;DHT22;9698;51.976;7.570;2023-04-25T10:59:05;9.70;1.00
19132;DHT22;9698;51.976;7.570;2023-04-25T11:01:40;9.90;99.90
19132;DHT22;9698;51.976;7.570;2023-04-25T11:04:20;9.70;1.00
19132;DHT22;9698;51.976;7.570;2023-04-25T11:07:00;9.70;1.00
19132;DHT22;9698;51.976;7.570;2023-04-25T11:09:35;9.60;1.00
19132;DHT22;9698;51.976;7.570;2023-04-25T11:12:06;9.50;1.00
19132;DHT22;9698;51.976;7.570;2023-04-25T11:14:35;9.30;1.00
19132;DHT22;9698;51.976;7.570;2023-04-25T11:17:03;9.50;1.00
19132;DHT22;9698;51.976;7.570;2023-04-25T11:19:31;9.10;99.90
19132;DHT22;9698;51.976;7.570;2023-04-25T11:22:00;9.60;1.00
19132;DHT22;9698;51.976;7.570;2023-04-25T11:24:29;9.80;1.00
19132;DHT22;9698;51.976;7.570;2023-04-25T11:26:58;9.90;99.90
19132;DHT22;9698;51.976;7.570;2023-04-25T11:29:28;9.70;99.90
19132;DHT22;9698;51.976;7.570;2023-04-25T11:31:56;9.60;1.00
19132;DHT22;9698;51.976;7.570;2023-04-25T11:34:25;9.60;1.00
19132;DHT22;9698;51.976;7.570;2023-04-25T11:36:54;9.50;1.00
19132;DHT22;9698;51.976;7.570;2023-04-25T11:39:22;9.40;1.00
19132;DHT22;9698;51.976;7.570;2023-04-25T11:41:51;9.40;1.00
19132;DHT22;9698;51.976;7.570;2023-04-25T11:44:20;9.50;1.00
19132;DHT22;9698;51.976;7.570;2023-04-25T11:46:48;9.60;1.00
19132;DHT22;9698;51.976;7.570;2023-04-25T11:49:16;9.90;1.00
19132;DHT22;9698;51.976;7.570;2023-04-25T11:51:46;9.90;1.00
19132;DHT22;9698;51.976;7.570;2023-04-25T11:54:15;10.10;1.00
19132;DHT22;9698;51.976;7.570;2023-04-25T11:56:43;10.20;1.00
19132;DHT22;9698;51.976;7.570;2023-04-25T11:59:12;9.90;1.00
19132;DHT22;9698;51.976;7.570;2023-04-25T12:01:48;10.10;99.90
19132;DHT22;9698;51.976;7.570;2023-04-25T12:04:17;10.00;1.00
19132;DHT22;9698;51.976;7.570;2023-04-25T12:06:48;9.80;1.00
19132;DHT22;9698;51.976;7.570;2023-04-25T12:09:18;9.90;1.00
19132;DHT22;9698;51.976;7.570;2023-04-25T12:11:48;10.10;1.00
19132;DHT22;9698;51.976;7.570;2023-04-25T12:14:22;10.40;1.00
19132;DHT22;9698;51.976;7.570;2023-04-25T12:16:51;10.40;1.00
19132;DHT22;9698;51.976;7.570;2023-04-25T12:19:22;10.50;1.00
19132;DHT22;9698;51.976;7.570;2023-04-25T12:21:51;10.50;10.70
19132;DHT22;9698;51.976;7.570;2023-04-25T12:24:24;10.50;51.90
19132;DHT22;9698;51.976;7.570;2023-04-25T12:26:58;10.80;99.90
19132;DHT22;9698;51.976;7.570;2023-04-25T12:29:28;11.00;99.90
19132;DHT22;9698;51.976;7.570;2023-04-25T12:32:06;11.10;1.00
19132;DHT22;9698;51.976;7.570;2023-04-25T12:34:34;10.90;99.90
19132;DHT22;9698;51.976;7.570;2023-04-25T12:39:49;12.00;99.90
19132;DHT22;9698;51.976;7.570;2023-04-25T12:42:17;12.40;99.90
19132;DHT22;9698;51.976;7.570;2023-04-25T12:44:45;12.40;1.00
19132;DHT22;9698;51.976;7.570;2023-04-25T12:47:14;12.50;1.00
19132;DHT22;9698;51.976;7.570;2023-04-25T12:52:29;11.70;1.00
19132;DHT22;9698;51.976;7.570;2023-04-25T12:54:57;11.80;1.00
19132;DHT22;9698;51.976;7.570;2023-04-25T13:00:16;11.30;99.90
19132;DHT22;9698;51.976;7.570;2023-04-25T13:02:45;11.10;1.00
19132;DHT22;9698;51.976;7.570;2023-04-25T13:05:14;11.10;1.00
19132;DHT22;9698;51.976;7.570;2023-04-25T13:07:42;10.90;1.00
19132;DHT22;9698;51.976;7.570;2023-04-25T13:10:11;11.00;1.00
19132;DHT22;9698;51.976;7.570;2023-04-25T13:12:39;10.90;1.00
19132;DHT22;9698;51.976;7.570;2023-04-25T13:15:09;11.00;99.90
19132;DHT22;9698;51.976;7.570;2023-04-25T13:17:38;11.20;1.00
19132;DHT22;9698;51.976;7.570;2023-04-25T13:20:10;11.40;1.00
19132;DHT22;9698;51.976;7.570;2023-04-25T13:22:38;11.40;1.00
19132;DHT22;9698;51.976;7.570;2023-04-25T13:25:08;11.30;1.00
19132;DHT22;9698;51.976;7.570;2023-04-25T13:27:37;10.70;1.00
19132;DHT22;9698;51.976;7.570;2023-04-25T13:30:08;11.10;42.20
19132;DHT22;9698;51.976;7.570;2023-04-25T13:32:36;10.90;92.30
19132;DHT22;9698;51.976;7.570;2023-04-25T13:35:06;11.20;1.00
19132;DHT22;9698;51.976;7.570;2023-04-25T13:37:37;11.20;1.00
19132;DHT22;9698;51.976;7.570;2023-04-25T13:40:10;11.20;99.90
19132;DHT22;9698;51.976;7.570;2023-04-25T13:42:39;11.10;1.00
19132;DHT22;9698;51.976;7.570;2023-04-25T13:47:56;11.30;99.90
19132;DHT22;9698;51.976;7.570;2023-04-25T13:50:25;11.40;99.90
19132;DHT22;9698;51.976;7.570;2023-04-25T13:52:53;11.50;99.90
19132;DHT22;9698;51.976;7.570;2023-04-25T13:55:21;13.40;1.00
19132;DHT22;9698;51.976;7.570;2023-04-25T13:57:49;11.70;1.00
19132;DHT22;9698;51.976;7.570;2023-04-25T14:00:19;11.60;99.90
19132;DHT22;9698;51.976;7.570;2023-04-25T14:02:47;11.60;99.90
19132;DHT22;9698;51.976;7.570;2023-04-25T14:08:06;11.20;99.90
19132;DHT22;9698;51.976;7.570;2023-04-25T14:10:35;11.20;99.90
19132;DHT22;9698;51.976;7.570;2023-04-25T14:13:04;10.90;99.90
19132;DHT22;9698;51.976;7.570;2023-04-25T14:18:20;10.70;1.00
19132;DHT22;9698;51.976;7.570;2023-04-25T14:20:48;10.90;1.00
19132;DHT22;9698;51.976;7.570;2023-04-25T14:23:16;10.90;1.00
19132;DHT22;9698;51.976;7.570;2023-04-25T14:25:44;10.90;1.00
19132;DHT22;9698;51.976;7.570;2023-04-25T14:28:12;11.10;1.00
19132;DHT22;9698;51.976;7.570;2023-04-25T14:30:40;11.10;1.00
19132;DHT22;9698;51.976;7.570;2023-04-25T14:33:08;11.40;1.00
19132;DHT22;9698;51.976;7.570;2023-04-25T14:35:36;10.30;1.00
19132;DHT22;9698;51.976;7.570;2023-04-25T14:38:04;11.50;1.00
19132;DHT22;9698;51.976;7.570;2023-04-25T14:40:32;12.20;99.90
19132;DHT22;9698;51.976;7.570;2023-04-25T14:43:00;12.20;1.00
19132;DHT22;9698;51.976;7.570;2023-04-25T14:48:14;11.40;1.00
19132;DHT22;9698;51.976;7.570;2023-04-25T14:50:43;11.60;1.00
19132;DHT22;9698;51.976;7.570;2023-04-25T14:53:11;11.70;1.00
19132;DHT22;9698;51.976;7.570;2023-04-25T14:55:40;11.80;99.90
19132;DHT22;9698;51.976;7.570;2023-04-25T14:58:08;11.50;99.90
19132;DHT22;9698;51.976;7.570;2023-04-25T15:00:37;11.70;1.00
19132;DHT22;9698;51.976;7.570;2023-04-25T15:03:05;11.70;1.00
19132;DHT22;9698;51.976;7.570;2023-04-25T15:05:35;11.90;1.00
19132;DHT22;9698;51.976;7.570;2023-04-25T15:08:03;11.80;1.00
19132;DHT22;9698;51.976;7.570;2023-04-25T15:18:36;12.00;1.00
19132;DHT22;9698;51.976;7.570;2023-04-25T15:21:04;11.90;50.50
19132;DHT22;9698;51.976;7.570;2023-04-25T15:23:32;12.00;1.00
19132;DHT22;9698;51.976;7.570;2023-04-25T15:26:00;11.90;40.00
19132;DHT22;9698;51.976;7.570;2023-04-25T15:28:28;11.90;16.60
19132;DHT22;9698;51.976;7.570;2023-04-25T15:30:56;12.00;1.00
19132;DHT22;9698;51.976;7.570;2023-04-25T15:33:24;12.00;1.00
19132;DHT22;9698;51.976;7.570;2023-04-25T15:35:53;12.00;1.00
19132;DHT22;9698;51.976;7.570;2023-04-25T15:38:21;11.90;1.00
19132;DHT22;9698;51.976;7.570;2023-04-25T15:40:49;11.70;1.00
19132;DHT22;9698;51.976;7.570;2023-04-25T15:43:17;11.20;1.00
19132;DHT22;9698;51.976;7.570;2023-04-25T15:45:45;11.60;99.90
19132;DHT22;9698;51.976;7.570;2023-04-25T15:48:13;11.80;99.90
19132;DHT22;9698;51.976;7.570;2023-04-25T15:53:28;12.20;1.00
19132;DHT22;9698;51.976;7.570;2023-04-25T15:55:57;12.40;99.90
19132;DHT22;9698;51.976;7.570;2023-04-25T15:58:25;12.40;99.90
19132;DHT22;9698;51.976;7.570;2023-04-25T16:00:53;12.60;1.00
19132;DHT22;9698;51.976;7.570;2023-04-25T16:03:22;12.70;99.90
19132;DHT22;9698;51.976;7.570;2023-04-25T16:05:51;13.00;1.00
19132;DHT22;9698;51.976;7.570;2023-04-25T16:08:19;12.90;99.90
19132;DHT22;9698;51.976;7.570;2023-04-25T16:10:48;12.90;99.90
19132;DHT22;9698;51.976;7.570;2023-04-25T16:13:15;12.70;60.40
19132;DHT22;9698;51.976;7.570;2023-04-25T16:15:43;12.50;1.00
19132;DHT22;9698;51.976;7.570;2023-04-25T16:18:11;12.70;1.00
19132;DHT22;9698;51.976;7.570;2023-04-25T16:20:39;12.70;99.90
19132;DHT22;9698;51.976;7.570;2023-04-25T16:23:08;12.70;1.00
19132;DHT22;9698;51.976;7.570;2023-04-25T16:25:36;13.30;1.00
19132;DHT22;9698;51.976;7.570;2023-04-25T16:28:04;12.90;99.90
19132;DHT22;9698;51.976;7.570;2023-04-25T16:30:32;12.70;99.90
19132;DHT22;9698;51.976;7.570;2023-04-25T16:33:00;12.40;99.90
19132;DHT22;9698;51.976;7.570;2023-04-25T16:35:28;12.10;1.00
19132;DHT22;9698;51.976;7.570;2023-04-25T16:37:59;12.00;99.90
19132;DHT22;9698;51.976;7.570;2023-04-25T16:40:27;11.50;99.90
19132;DHT22;9698;51.976;7.570;2023-04-25T16:42:55;11.30;1.00
19132;DHT22;9698;51.976;7.570;2023-04-25T16:45:23;10.90;1.00
19132;DHT22;9698;51.976;7.570;2023-04-25T16:47:51;11.10;1.00
19132;DHT22;9698;51.976;7.570;2023-04-25T16:50:19;10.90;1.00
19132;DHT22;9698;51.976;7.570;2023-04-25T16:52:47;10.70;1.00
19132;DHT22;9698;51.976;7.570;2023-04-25T16:55:15;10.80;1.00
19132;DHT22;9698;51.976;7.570;2023-04-25T16:57:43;10.60;1.00
19132;DHT22;9698;51.976;7.570;2023-04-25T17:05:32;10.50;1.00
19132;DHT22;9698;51.976;7.570;2023-04-25T17:08:05;10.40;1.00
19132;DHT22;9698;51.976;7.570;2023-04-25T17:13:24;10.90;1.00
19132;DHT22;9698;51.976;7.570;2023-04-25T17:15:58;10.90;1.00
19132;DHT22;9698;51.976;7.570;2023-04-25T17:18:27;11.20;1.00
19132;DHT22;9698;51.976;7.570;2023-04-25T17:23:43;12.10;99.90
19132;DHT22;9698;51.976;7.570;2023-04-25T17:26:12;12.00;99.90
19132;DHT22;9698;51.976;7.570;2023-04-25T17:28:40;12.00;99.90
19132;DHT22;9698;51.976;7.570;2023-04-25T17:31:11;12.20;99.90
19132;DHT22;9698;51.976;7.570;2023-04-25T17:33:39;12.90;1.00
19132;DHT22;9698;51.976;7.570;2023-04-25T17:38:55;13.30;1.00
19132;DHT22;9698;51.976;7.570;2023-04-25T17:41:23;13.30;99.90
19132;DHT22;9698;51.976;7.570;2023-04-25T17:56:12;13.50;1.00
19132;DHT22;9698;51.976;7.570;2023-04-25T18:01:22;12.50;1.00
19132;DHT22;9698;51.976;7.570;2023-04-25T18:03:51;11.90;1.00
19132;DHT22;9698;51.976;7.570;2023-04-25T18:06:19;12.10;1.00